sensor_id;sensor_type;location;lat;lon;timestamp;temperature;humidity
20881;DHT22;10600;53.096;8.802;2022-09-12T00:01:10;12.60;99.90
20881;DHT22;10600;53.096;8.802;2022-09-12T00:02:11;12.60;99.90
20881;DHT22;10600;53.096;8.802;2022-09-12T00:03:12;12.60;99.90
20881;DHT22;10600;53.096;8.802;2022-09-12T00:04:12;12.50;99.90
20881;DHT22;10600;53.096;8.802;2022-09-12T00:05:13;12.50;99.90
20881;DHT22;10600;53.096;8.802;2022-09-12T00:06:25;12.50;99.90
20881;DHT22;10600;53.096;8.802;2022-09-12T00:07:26;12.60;99.90
20881;DHT22;10600;53.096;8.802;2022-09-12T00:08:27;12.60;99.90
20881;DHT22;10600;53.096;8.802;2022-09-12T00:09:27;12.60;99.90
20881;DHT22;10600;53.096;8.802;2022-09-12T00:10:28;12.60;99.90
20881;DHT22;10600;53.096;8.802;2022-09-12T00:11:29;12.70;99.90
20881;DHT22;10600;53.096;8.802;2022-09-12T00:12:29;12.70;99.90
20881;DHT22;10600;53.096;8.802;2022-09-12T00:13:30;12.70;99.90
20881;DHT22;10600;53.096;8.802;2022-09-12T00:14:31;12.60;99.90
20881;DHT22;10600;53.096;8.802;2022-09-12T00:15:32;12.70;99.90
20881;DHT22;10600;53.096;8.802;2022-09-12T00:16:37;12.70;99.90
20881;DHT22;10600;53.096;8.802;2022-09-12T00:17:38;12.70;99.90
20881;DHT22;10600;53.096;8.802;2022-09-12T00:18:38;12.60;99.90
20881;DHT22;10600;53.096;8.802;2022-09-12T00:19:39;12.70;99.90
20881;DHT22;10600;53.096;8.802;2022-09-12T00:20:44;12.70;99.90
20881;DHT22;10600;53.096;8.802;2022-09-12T00:21:45;12.70;99.90
20881;DHT22;10600;53.096;8.802;2022-09-12T00:22:45;12.70;99.90
20881;DHT22;10600;53.096;8.802;2022-09-12T00:23:46;12.70;99.90
20881;DHT22;10600;53.096;8.802;2022-09-12T00:24:47;12.60;99.90
20881;DHT22;10600;53.096;8.802;2022-09-12T00:25:48;12.70;99.90
20881;DHT22;10600;53.096;8.802;2022-09-12T00:26:49;12.70;99.90
20881;DHT22;10600;53.096;8.802;2022-09-12T00:27:49;12.60;99.90
20881;DHT22;10600;53.096;8.802;2022-09-12T00:28:50;12.70;99.90
20881;DHT22;10600;53.096;8.802;2022-09-12T00:29:51;12.60;99.90
20881;DHT22;10600;53.096;8.802;2022-09-12T00:30:51;12.60;99.90
20881;DHT22;10600;53.096;8.802;2022-09-12T00:31:52;12.60;99.90
20881;DHT22;10600;53.096;8.802;2022-09-12T00:32:53;12.60;99.90
20881;DHT22;10600;53.096;8.802;2022-09-12T00:33:55;12.60;99.90
20881;DHT22;10600;53.096;8.802;2022-09-12T00:34:56;12.60;99.90
20881;DHT22;10600;53.096;8.802;2022-09-12T00:35:57;12.60;99.90
20881;DHT22;10600;53.096;8.802;2022-09-12T00:36:58;12.60;99.90
20881;DHT22;10600;53.096;8.802;2022-09-12T00:37:58;12.60;99.90
20881;DHT22;10600;53.096;8.802;2022-09-12T00:38:59;12.60;99.90
20881;DHT22;10600;53.096;8.802;2022-09-12T00:40:00;12.60;99.90
20881;DHT22;10600;53.096;8.802;2022-09-12T00:41:01;12.60;99.90
20881;DHT22;10600;53.096;8.802;2022-09-12T00:42:01;12.60;99.90
20881;DHT22;10600;53.096;8.802;2022-09-12T00:43:02;12.60;99.90
20881;DHT22;10600;53.096;8.802;2022-09-12T00:45:27;12.60;99.90
20881;DHT22;10600;53.096;8.802;2022-09-12T00:47:35;12.60;99.90
20881;DHT22;10600;53.096;8.802;2022-09-12T00:48:46;12.60;99.90
20881;DHT22;10600;53.096;8.802;2022-09-12T00:50:01;12.60;99.90
20881;DHT22;10600;53.096;8.802;2022-09-12T00:51:03;12.60;99.90
20881;DHT22;10600;53.096;8.802;2022-09-12T00:52:11;12.60;99.90
20881;DHT22;10600;53.096;8.802;2022-09-12T00:53:12;12.60;99.90
20881;DHT22;10600;53.096;8.802;2022-09-12T00:54:18;12.50;99.90
20881;DHT22;10600;53.096;8.802;2022-09-12T00:55:23;12.50;99.90
20881;DHT22;10600;53.096;8.802;2022-09-12T00:56:26;12.50;99.90
20881;DHT22;10600;53.096;8.802;2022-09-12T00:57:32;12.50;99.90
20881;DHT22;10600;53.096;8.802;2022-09-12T00:58:43;12.50;99.90
20881;DHT22;10600;53.096;8.802;2022-09-12T00:59:52;12.40;99.90
20881;DHT22;10600;53.096;8.802;2022-09-12T01:00:53;12.40;99.90
20881;DHT22;10600;53.096;8.802;2022-09-12T01:01:55;12.40;99.90
20881;DHT22;10600;53.096;8.802;2022-09-12T01:03:00;12.40;99.90
20881;DHT22;10600;53.096;8.802;2022-09-12T01:04:02;12.30;99.90
20881;DHT22;10600;53.096;8.802;2022-09-12T01:05:04;12.30;99.90
20881;DHT22;10600;53.096;8.802;2022-09-12T01:06:15;12.30;99.90
20881;DHT22;10600;53.096;8.802;2022-09-12T01:07:18;12.30;99.90
20881;DHT22;10600;53.096;8.802;2022-09-12T01:08:20;12.30;99.90
20881;DHT22;10600;53.096;8.802;2022-09-12T01:09:23;12.30;99.90
20881;DHT22;10600;53.096;8.802;2022-09-12T01:10:24;12.30;99.90
20881;DHT22;10600;53.096;8.802;2022-09-12T01:11:25;12.30;99.90
20881;DHT22;10600;53.096;8.802;2022-09-12T01:12:26;12.30;99.90
20881;DHT22;10600;53.096;8.802;2022-09-12T01:13:27;12.30;99.90
20881;DHT22;10600;53.096;8.802;2022-09-12T01:14:29;12.30;99.90
20881;DHT22;10600;53.096;8.802;2022-09-12T01:15:30;12.30;99.90
20881;DHT22;10600;53.096;8.802;2022-09-12T01:16:34;12.30;99.90
20881;DHT22;10600;53.096;8.802;2022-09-12T01:17:43;12.30;99.90
20881;DHT22;10600;53.096;8.802;2022-09-12T01:19:08;12.20;99.90
20881;DHT22;10600;53.096;8.802;2022-09-12T01:24:45;12.20;99.90
20881;DHT22;10600;53.096;8.802;2022-09-12T01:27:32;12.20;99.90
20881;DHT22;10600;53.096;8.802;2022-09-12T01:30:20;12.10;99.90
20881;DHT22;10600;53.096;8.802;2022-09-12T01:31:27;12.10;99.90
20881;DHT22;10600;53.096;8.802;2022-09-12T01:35:13;12.10;99.90
20881;DHT22;10600;53.096;8.802;2022-09-12T01:36:27;12.10;99.90
20881;DHT22;10600;53.096;8.802;2022-09-12T01:38:57;12.10;99.90
20881;DHT22;10600;53.096;8.802;2022-09-12T01:42:45;12.10;99.90
20881;DHT22;10600;53.096;8.802;2022-09-12T01:43:58;12.10;99.90
20881;DHT22;10600;53.096;8.802;2022-09-12T01:46:21;12.00;99.90
20881;DHT22;10600;53.096;8.802;2022-09-12T01:50:07;12.00;99.90
20881;DHT22;10600;53.096;8.802;2022-09-12T01:51:18;12.00;99.90
20881;DHT22;10600;53.096;8.802;2022-09-12T01:52:28;12.00;99.90
20881;DHT22;10600;53.096;8.802;2022-09-12T01:53:44;12.00;99.90
20881;DHT22;10600;53.096;8.802;2022-09-12T01:54:58;12.00;99.90
20881;DHT22;10600;53.096;8.802;2022-09-12T01:56:19;12.00;99.90
20881;DHT22;10600;53.096;8.802;2022-09-12T01:57:49;12.00;99.90
20881;DHT22;10600;53.096;8.802;2022-09-12T01:58:53;11.90;99.90
20881;DHT22;10600;53.096;8.802;2022-09-12T01:59:59;11.90;99.90
20881;DHT22;10600;53.096;8.802;2022-09-12T02:01:08;11.90;99.90
20881;DHT22;10600;53.096;8.802;2022-09-12T02:02:27;11.90;99.90
20881;DHT22;10600;53.096;8.802;2022-09-12T02:03:59;11.80;99.90
20881;DHT22;10600;53.096;8.802;2022-09-12T02:05:13;11.90;99.90
20881;DHT22;10600;53.096;8.802;2022-09-12T02:06:25;11.90;99.90
20881;DHT22;10600;53.096;8.802;2022-09-12T02:07:35;11.80;99.90
20881;DHT22;10600;53.096;8.802;2022-09-12T02:08:43;11.80;99.90
20881;DHT22;10600;53.096;8.802;2022-09-12T02:10:09;11.80;99.90
20881;DHT22;10600;53.096;8.802;2022-09-12T02:11:12;11.80;99.90
20881;DHT22;10600;53.096;8.802;2022-09-12T02:12:15;11.70;99.90
20881;DHT22;10600;53.096;8.802;2022-09-12T02:13:22;11.70;99.90
20881;DHT22;10600;53.096;8.802;2022-09-12T02:14:28;11.70;99.90
20881;DHT22;10600;53.096;8.802;2022-09-12T02:15:43;11.70;99.90
20881;DHT22;10600;53.096;8.802;2022-09-12T02:16:49;11.70;99.90
20881;DHT22;10600;53.096;8.802;2022-09-12T02:17:51;11.70;99.90
20881;DHT22;10600;53.096;8.802;2022-09-12T02:18:58;11.70;99.90
20881;DHT22;10600;53.096;8.802;2022-09-12T02:20:18;11.70;99.90
20881;DHT22;10600;53.096;8.802;2022-09-12T02:21:21;11.60;99.90
20881;DHT22;10600;53.096;8.802;2022-09-12T02:22:26;11.60;99.90
20881;DHT22;10600;53.096;8.802;2022-09-12T02:23:29;11.60;99.90
20881;DHT22;10600;53.096;8.802;2022-09-12T02:24:35;11.60;99.90
20881;DHT22;10600;53.096;8.802;2022-09-12T02:25:39;11.60;99.90
20881;DHT22;10600;53.096;8.802;2022-09-12T02:27:02;11.60;99.90
20881;DHT22;10600;53.096;8.802;2022-09-12T02:28:09;11.60;99.90
20881;DHT22;10600;53.096;8.802;2022-09-12T02:29:11;11.60;99.90
20881;DHT22;10600;53.096;8.802;2022-09-12T02:30:12;11.60;99.90
20881;DHT22;10600;53.096;8.802;2022-09-12T02:33:41;11.50;99.90
20881;DHT22;10600;53.096;8.802;2022-09-12T02:34:50;11.50;99.90
20881;DHT22;10600;53.096;8.802;2022-09-12T02:36:10;11.50;99.90
20881;DHT22;10600;53.096;8.802;2022-09-12T02:38:43;11.50;99.90
20881;DHT22;10600;53.096;8.802;2022-09-12T02:39:45;11.50;99.90
20881;DHT22;10600;53.096;8.802;2022-09-12T02:40:46;11.50;99.90
20881;DHT22;10600;53.096;8.802;2022-09-12T02:41:49;11.50;99.90
20881;DHT22;10600;53.096;8.802;2022-09-12T02:42:51;11.50;99.90
20881;DHT22;10600;53.096;8.802;2022-09-12T02:43:52;11.50;99.90
20881;DHT22;10600;53.096;8.802;2022-09-12T02:44:54;11.50;99.90
20881;DHT22;10600;53.096;8.802;2022-09-12T02:45:55;11.50;99.90
20881;DHT22;10600;53.096;8.802;2022-09-12T02:47:09;11.50;99.90
20881;DHT22;10600;53.096;8.802;2022-09-12T02:48:15;11.50;99.90
20881;DHT22;10600;53.096;8.802;2022-09-12T02:49:17;11.50;99.90
20881;DHT22;10600;53.096;8.802;2022-09-12T02:50:18;11.50;99.90
20881;DHT22;10600;53.096;8.802;2022-09-12T02:51:20;11.40;99.90
20881;DHT22;10600;53.096;8.802;2022-09-12T02:52:20;11.40;99.90
20881;DHT22;10600;53.096;8.802;2022-09-12T02:53:22;11.40;99.90
20881;DHT22;10600;53.096;8.802;2022-09-12T02:54:23;11.40;99.90
20881;DHT22;10600;53.096;8.802;2022-09-12T02:55:25;11.40;99.90
20881;DHT22;10600;53.096;8.802;2022-09-12T02:56:29;11.40;99.90
20881;DHT22;10600;53.096;8.802;2022-09-12T02:57:31;11.40;99.90
20881;DHT22;10600;53.096;8.802;2022-09-12T02:58:31;11.40;99.90
20881;DHT22;10600;53.096;8.802;2022-09-12T02:59:33;11.40;99.90
20881;DHT22;10600;53.096;8.802;2022-09-12T03:00:38;11.40;99.90
20881;DHT22;10600;53.096;8.802;2022-09-12T03:02:03;11.30;99.90
20881;DHT22;10600;53.096;8.802;2022-09-12T03:06:15;11.30;99.90
20881;DHT22;10600;53.096;8.802;2022-09-12T03:10:36;11.30;99.90
20881;DHT22;10600;53.096;8.802;2022-09-12T03:11:55;11.30;99.90
20881;DHT22;10600;53.096;8.802;2022-09-12T03:15:04;11.20;99.90
20881;DHT22;10600;53.096;8.802;2022-09-12T03:18:50;11.20;99.90
20881;DHT22;10600;53.096;8.802;2022-09-12T03:20:21;11.20;99.90
20881;DHT22;10600;53.096;8.802;2022-09-12T03:21:41;11.20;99.90
20881;DHT22;10600;53.096;8.802;2022-09-12T03:23:01;11.10;99.90
20881;DHT22;10600;53.096;8.802;2022-09-12T03:26:11;11.10;99.90
20881;DHT22;10600;53.096;8.802;2022-09-12T03:27:16;11.20;99.90
20881;DHT22;10600;53.096;8.802;2022-09-12T03:28:19;11.10;99.90
20881;DHT22;10600;53.096;8.802;2022-09-12T03:29:23;11.10;99.90
20881;DHT22;10600;53.096;8.802;2022-09-12T03:30:25;11.10;99.90
20881;DHT22;10600;53.096;8.802;2022-09-12T03:31:26;11.10;99.90
20881;DHT22;10600;53.096;8.802;2022-09-12T03:32:59;11.10;99.90
20881;DHT22;10600;53.096;8.802;2022-09-12T03:34:00;11.10;99.90
20881;DHT22;10600;53.096;8.802;2022-09-12T03:35:01;11.10;99.90
20881;DHT22;10600;53.096;8.802;2022-09-12T03:36:02;11.10;99.90
20881;DHT22;10600;53.096;8.802;2022-09-12T03:37:03;11.10;99.90
20881;DHT22;10600;53.096;8.802;2022-09-12T03:38:04;11.10;99.90
20881;DHT22;10600;53.096;8.802;2022-09-12T03:39:07;11.10;99.90
20881;DHT22;10600;53.096;8.802;2022-09-12T03:40:09;11.10;99.90
20881;DHT22;10600;53.096;8.802;2022-09-12T03:41:09;11.10;99.90
20881;DHT22;10600;53.096;8.802;2022-09-12T03:42:10;11.10;99.90
20881;DHT22;10600;53.096;8.802;2022-09-12T03:43:11;11.10;99.90
20881;DHT22;10600;53.096;8.802;2022-09-12T03:44:11;11.00;99.90
20881;DHT22;10600;53.096;8.802;2022-09-12T03:45:13;11.00;99.90
20881;DHT22;10600;53.096;8.802;2022-09-12T03:46:13;11.00;99.90
20881;DHT22;10600;53.096;8.802;2022-09-12T03:47:14;11.00;99.90
20881;DHT22;10600;53.096;8.802;2022-09-12T03:48:15;11.00;99.90
20881;DHT22;10600;53.096;8.802;2022-09-12T03:49:15;11.00;99.90
20881;DHT22;10600;53.096;8.802;2022-09-12T03:50:17;11.00;99.90
20881;DHT22;10600;53.096;8.802;2022-09-12T03:51:18;11.00;99.90
20881;DHT22;10600;53.096;8.802;2022-09-12T03:52:18;11.00;99.90
20881;DHT22;10600;53.096;8.802;2022-09-12T03:53:19;11.00;99.90
20881;DHT22;10600;53.096;8.802;2022-09-12T03:54:19;11.00;99.90
20881;DHT22;10600;53.096;8.802;2022-09-12T03:55:20;11.00;99.90
20881;DHT22;10600;53.096;8.802;2022-09-12T03:56:21;10.90;99.90
20881;DHT22;10600;53.096;8.802;2022-09-12T03:57:21;10.90;99.90
20881;DHT22;10600;53.096;8.802;2022-09-12T03:58:23;10.90;99.90
20881;DHT22;10600;53.096;8.802;2022-09-12T03:59:23;10.90;99.90
20881;DHT22;10600;53.096;8.802;2022-09-12T04:00:24;10.90;99.90
20881;DHT22;10600;53.096;8.802;2022-09-12T04:01:25;10.90;99.90
20881;DHT22;10600;53.096;8.802;2022-09-12T04:02:26;10.90;99.90
20881;DHT22;10600;53.096;8.802;2022-09-12T04:03:27;10.90;99.90
20881;DHT22;10600;53.096;8.802;2022-09-12T04:04:28;10.80;99.90
20881;DHT22;10600;53.096;8.802;2022-09-12T04:05:28;10.80;99.90
20881;DHT22;10600;53.096;8.802;2022-09-12T04:06:29;10.80;99.90
20881;DHT22;10600;53.096;8.802;2022-09-12T04:07:30;10.80;99.90
20881;DHT22;10600;53.096;8.802;2022-09-12T04:08:31;10.80;99.90
20881;DHT22;10600;53.096;8.802;2022-09-12T04:09:31;10.80;99.90
20881;DHT22;10600;53.096;8.802;2022-09-12T04:10:32;10.80;99.90
20881;DHT22;10600;53.096;8.802;2022-09-12T04:11:33;10.80;99.90
20881;DHT22;10600;53.096;8.802;2022-09-12T04:12:35;10.80;99.90
20881;DHT22;10600;53.096;8.802;2022-09-12T04:13:37;10.80;99.90
20881;DHT22;10600;53.096;8.802;2022-09-12T04:14:38;10.80;99.90
20881;DHT22;10600;53.096;8.802;2022-09-12T04:15:38;10.80;99.90
20881;DHT22;10600;53.096;8.802;2022-09-12T04:16:39;10.80;99.90
20881;DHT22;10600;53.096;8.802;2022-09-12T04:17:40;10.80;99.90
20881;DHT22;10600;53.096;8.802;2022-09-12T04:18:41;10.70;99.90
20881;DHT22;10600;53.096;8.802;2022-09-12T04:19:41;10.70;99.90
20881;DHT22;10600;53.096;8.802;2022-09-12T04:20:42;10.70;99.90
20881;DHT22;10600;53.096;8.802;2022-09-12T04:21:43;10.70;99.90
20881;DHT22;10600;53.096;8.802;2022-09-12T04:22:43;10.70;99.90
20881;DHT22;10600;53.096;8.802;2022-09-12T04:23:44;10.70;99.90
20881;DHT22;10600;53.096;8.802;2022-09-12T04:24:45;10.70;99.90
20881;DHT22;10600;53.096;8.802;2022-09-12T04:25:53;10.70;99.90
20881;DHT22;10600;53.096;8.802;2022-09-12T04:26:54;10.70;99.90
20881;DHT22;10600;53.096;8.802;2022-09-12T04:27:55;10.60;99.90
20881;DHT22;10600;53.096;8.802;2022-09-12T04:28:56;10.60;99.90
20881;DHT22;10600;53.096;8.802;2022-09-12T04:29:57;10.60;99.90
20881;DHT22;10600;53.096;8.802;2022-09-12T04:31:04;10.60;99.90
20881;DHT22;10600;53.096;8.802;2022-09-12T04:32:05;10.60;99.90
20881;DHT22;10600;53.096;8.802;2022-09-12T04:33:06;10.70;99.90
20881;DHT22;10600;53.096;8.802;2022-09-12T04:34:07;10.60;99.90
20881;DHT22;10600;53.096;8.802;2022-09-12T04:35:07;10.60;99.90
20881;DHT22;10600;53.096;8.802;2022-09-12T04:36:13;10.70;99.90
20881;DHT22;10600;53.096;8.802;2022-09-12T04:37:16;10.60;99.90
20881;DHT22;10600;53.096;8.802;2022-09-12T04:38:16;10.60;99.90
20881;DHT22;10600;53.096;8.802;2022-09-12T04:39:17;10.60;99.90
20881;DHT22;10600;53.096;8.802;2022-09-12T04:40:18;10.60;99.90
20881;DHT22;10600;53.096;8.802;2022-09-12T04:41:24;10.60;99.90
20881;DHT22;10600;53.096;8.802;2022-09-12T04:42:25;10.60;99.90
20881;DHT22;10600;53.096;8.802;2022-09-12T04:43:26;10.60;99.90
20881;DHT22;10600;53.096;8.802;2022-09-12T04:44:27;10.60;99.90
20881;DHT22;10600;53.096;8.802;2022-09-12T04:45:28;10.60;99.90
20881;DHT22;10600;53.096;8.802;2022-09-12T04:46:34;10.60;99.90
20881;DHT22;10600;53.096;8.802;2022-09-12T04:47:35;10.60;99.90
20881;DHT22;10600;53.096;8.802;2022-09-12T04:48:36;10.60;99.90
20881;DHT22;10600;53.096;8.802;2022-09-12T04:49:37;10.60;99.90
20881;DHT22;10600;53.096;8.802;2022-09-12T04:50:37;10.60;99.90
20881;DHT22;10600;53.096;8.802;2022-09-12T04:51:39;10.60;99.90
20881;DHT22;10600;53.096;8.802;2022-09-12T04:52:41;10.60;99.90
20881;DHT22;10600;53.096;8.802;2022-09-12T04:53:42;10.60;99.90
20881;DHT22;10600;53.096;8.802;2022-09-12T04:54:46;10.60;99.90
20881;DHT22;10600;53.096;8.802;2022-09-12T04:55:47;10.70;99.90
20881;DHT22;10600;53.096;8.802;2022-09-12T04:56:49;10.60;99.90
20881;DHT22;10600;53.096;8.802;2022-09-12T04:57:50;10.60;99.90
20881;DHT22;10600;53.096;8.802;2022-09-12T04:58:51;10.70;99.90
20881;DHT22;10600;53.096;8.802;2022-09-12T04:59:52;10.70;99.90
20881;DHT22;10600;53.096;8.802;2022-09-12T05:00:53;10.70;99.90
20881;DHT22;10600;53.096;8.802;2022-09-12T05:01:53;10.80;99.90
20881;DHT22;10600;53.096;8.802;2022-09-12T05:02:54;10.80;99.90
20881;DHT22;10600;53.096;8.802;2022-09-12T05:03:56;10.80;99.90
20881;DHT22;10600;53.096;8.802;2022-09-12T05:04:57;10.80;99.90
20881;DHT22;10600;53.096;8.802;2022-09-12T05:05:58;10.80;99.90
20881;DHT22;10600;53.096;8.802;2022-09-12T05:06:59;10.80;99.90
20881;DHT22;10600;53.096;8.802;2022-09-12T05:08:00;10.80;99.90
20881;DHT22;10600;53.096;8.802;2022-09-12T05:09:02;10.80;99.90
20881;DHT22;10600;53.096;8.802;2022-09-12T05:10:03;10.80;99.90
20881;DHT22;10600;53.096;8.802;2022-09-12T05:11:06;10.80;99.90
20881;DHT22;10600;53.096;8.802;2022-09-12T05:12:07;10.80;99.90
20881;DHT22;10600;53.096;8.802;2022-09-12T05:13:08;10.80;99.90
20881;DHT22;10600;53.096;8.802;2022-09-12T05:14:10;10.80;99.90
20881;DHT22;10600;53.096;8.802;2022-09-12T05:15:11;10.80;99.90
20881;DHT22;10600;53.096;8.802;2022-09-12T05:16:13;10.80;99.90
20881;DHT22;10600;53.096;8.802;2022-09-12T05:17:14;10.80;99.90
20881;DHT22;10600;53.096;8.802;2022-09-12T05:18:15;10.80;99.90
20881;DHT22;10600;53.096;8.802;2022-09-12T05:19:16;10.80;99.90
20881;DHT22;10600;53.096;8.802;2022-09-12T05:20:16;10.80;99.90
20881;DHT22;10600;53.096;8.802;2022-09-12T05:21:19;10.80;99.90
20881;DHT22;10600;53.096;8.802;2022-09-12T05:22:20;10.80;99.90
20881;DHT22;10600;53.096;8.802;2022-09-12T05:23:21;10.80;99.90
20881;DHT22;10600;53.096;8.802;2022-09-12T05:24:22;10.80;99.90
20881;DHT22;10600;53.096;8.802;2022-09-12T05:25:22;10.80;99.90
20881;DHT22;10600;53.096;8.802;2022-09-12T05:26:23;10.80;99.90
20881;DHT22;10600;53.096;8.802;2022-09-12T05:27:24;10.80;99.90
20881;DHT22;10600;53.096;8.802;2022-09-12T05:28:29;10.80;99.90
20881;DHT22;10600;53.096;8.802;2022-09-12T05:29:30;10.90;99.90
20881;DHT22;10600;53.096;8.802;2022-09-12T05:30:31;10.90;99.90
20881;DHT22;10600;53.096;8.802;2022-09-12T05:31:32;11.00;99.90
20881;DHT22;10600;53.096;8.802;2022-09-12T05:32:32;11.00;99.90
20881;DHT22;10600;53.096;8.802;2022-09-12T05:33:35;11.00;99.90
20881;DHT22;10600;53.096;8.802;2022-09-12T05:34:35;11.10;99.90
20881;DHT22;10600;53.096;8.802;2022-09-12T05:35:37;11.10;99.90
20881;DHT22;10600;53.096;8.802;2022-09-12T05:36:38;11.10;99.90
20881;DHT22;10600;53.096;8.802;2022-09-12T05:37:38;11.20;99.90
20881;DHT22;10600;53.096;8.802;2022-09-12T05:38:39;11.20;99.90
20881;DHT22;10600;53.096;8.802;2022-09-12T05:39:40;11.30;99.90
20881;DHT22;10600;53.096;8.802;2022-09-12T05:40:40;11.40;99.90
20881;DHT22;10600;53.096;8.802;2022-09-12T05:41:41;11.40;99.90
20881;DHT22;10600;53.096;8.802;2022-09-12T05:42:42;11.50;99.90
20881;DHT22;10600;53.096;8.802;2022-09-12T05:43:43;11.50;99.90
20881;DHT22;10600;53.096;8.802;2022-09-12T05:44:44;11.60;99.90
20881;DHT22;10600;53.096;8.802;2022-09-12T05:45:45;11.70;99.90
20881;DHT22;10600;53.096;8.802;2022-09-12T05:46:45;11.70;99.90
20881;DHT22;10600;53.096;8.802;2022-09-12T05:47:49;11.80;99.90
20881;DHT22;10600;53.096;8.802;2022-09-12T05:48:50;11.90;99.90
20881;DHT22;10600;53.096;8.802;2022-09-12T05:49:51;11.90;99.90
20881;DHT22;10600;53.096;8.802;2022-09-12T05:50:51;11.90;99.90
20881;DHT22;10600;53.096;8.802;2022-09-12T05:51:52;12.00;99.90
20881;DHT22;10600;53.096;8.802;2022-09-12T05:52:53;12.10;99.90
20881;DHT22;10600;53.096;8.802;2022-09-12T05:53:56;12.10;99.90
20881;DHT22;10600;53.096;8.802;2022-09-12T05:54:57;12.20;99.90
20881;DHT22;10600;53.096;8.802;2022-09-12T05:56:09;12.30;99.90
20881;DHT22;10600;53.096;8.802;2022-09-12T05:57:10;12.30;99.90
20881;DHT22;10600;53.096;8.802;2022-09-12T05:58:11;12.40;99.90
20881;DHT22;10600;53.096;8.802;2022-09-12T05:59:19;12.50;99.90
20881;DHT22;10600;53.096;8.802;2022-09-12T06:00:20;12.50;99.90
20881;DHT22;10600;53.096;8.802;2022-09-12T06:01:21;12.50;99.90
20881;DHT22;10600;53.096;8.802;2022-09-12T06:02:22;12.60;99.90
20881;DHT22;10600;53.096;8.802;2022-09-12T06:03:22;12.60;99.90
20881;DHT22;10600;53.096;8.802;2022-09-12T06:04:23;12.70;99.90
20881;DHT22;10600;53.096;8.802;2022-09-12T06:05:24;12.80;99.90
20881;DHT22;10600;53.096;8.802;2022-09-12T06:06:26;12.80;99.90
20881;DHT22;10600;53.096;8.802;2022-09-12T06:07:27;12.90;99.90
20881;DHT22;10600;53.096;8.802;2022-09-12T06:08:30;12.90;99.90
20881;DHT22;10600;53.096;8.802;2022-09-12T06:09:30;13.00;99.90
20881;DHT22;10600;53.096;8.802;2022-09-12T06:10:32;13.10;99.90
20881;DHT22;10600;53.096;8.802;2022-09-12T06:11:35;13.10;99.90
20881;DHT22;10600;53.096;8.802;2022-09-12T06:12:36;13.20;99.90
20881;DHT22;10600;53.096;8.802;2022-09-12T06:13:38;13.20;99.90
20881;DHT22;10600;53.096;8.802;2022-09-12T06:14:42;13.30;99.90
20881;DHT22;10600;53.096;8.802;2022-09-12T06:15:42;13.30;99.90
20881;DHT22;10600;53.096;8.802;2022-09-12T06:16:44;13.40;99.90
20881;DHT22;10600;53.096;8.802;2022-09-12T06:17:47;13.50;99.90
20881;DHT22;10600;53.096;8.802;2022-09-12T06:18:50;13.50;99.90
20881;DHT22;10600;53.096;8.802;2022-09-12T06:19:51;13.60;99.90
20881;DHT22;10600;53.096;8.802;2022-09-12T06:20:52;13.60;99.90
20881;DHT22;10600;53.096;8.802;2022-09-12T06:21:53;13.70;99.90
20881;DHT22;10600;53.096;8.802;2022-09-12T06:22:53;13.70;99.90
20881;DHT22;10600;53.096;8.802;2022-09-12T06:23:54;13.80;99.90
20881;DHT22;10600;53.096;8.802;2022-09-12T06:24:55;13.80;99.90
20881;DHT22;10600;53.096;8.802;2022-09-12T06:25:55;13.90;99.90
20881;DHT22;10600;53.096;8.802;2022-09-12T06:26:56;13.90;99.90
20881;DHT22;10600;53.096;8.802;2022-09-12T06:27:57;14.00;99.90
20881;DHT22;10600;53.096;8.802;2022-09-12T06:28:59;14.00;99.90
20881;DHT22;10600;53.096;8.802;2022-09-12T06:30:00;14.00;99.90
20881;DHT22;10600;53.096;8.802;2022-09-12T06:31:11;14.10;99.90
20881;DHT22;10600;53.096;8.802;2022-09-12T06:32:12;14.20;99.90
20881;DHT22;10600;53.096;8.802;2022-09-12T06:33:14;14.20;99.90
20881;DHT22;10600;53.096;8.802;2022-09-12T06:34:16;14.20;99.90
20881;DHT22;10600;53.096;8.802;2022-09-12T06:35:17;14.30;99.90
20881;DHT22;10600;53.096;8.802;2022-09-12T06:36:26;14.30;99.90
20881;DHT22;10600;53.096;8.802;2022-09-12T06:37:27;14.30;99.90
20881;DHT22;10600;53.096;8.802;2022-09-12T06:38:27;14.40;99.90
20881;DHT22;10600;53.096;8.802;2022-09-12T06:39:28;14.40;99.90
20881;DHT22;10600;53.096;8.802;2022-09-12T06:40:31;14.40;99.90
20881;DHT22;10600;53.096;8.802;2022-09-12T06:41:32;14.50;99.90
20881;DHT22;10600;53.096;8.802;2022-09-12T06:42:33;14.50;99.90
20881;DHT22;10600;53.096;8.802;2022-09-12T06:43:34;14.60;99.90
20881;DHT22;10600;53.096;8.802;2022-09-12T06:44:34;14.60;99.90
20881;DHT22;10600;53.096;8.802;2022-09-12T06:45:35;14.60;99.90
20881;DHT22;10600;53.096;8.802;2022-09-12T06:46:35;14.70;99.90
20881;DHT22;10600;53.096;8.802;2022-09-12T06:47:36;14.70;99.90
20881;DHT22;10600;53.096;8.802;2022-09-12T06:48:37;14.80;99.90
20881;DHT22;10600;53.096;8.802;2022-09-12T06:49:37;14.80;99.90
20881;DHT22;10600;53.096;8.802;2022-09-12T06:50:38;14.80;99.90
20881;DHT22;10600;53.096;8.802;2022-09-12T06:51:39;14.90;99.90
20881;DHT22;10600;53.096;8.802;2022-09-12T06:52:43;14.90;99.90
20881;DHT22;10600;53.096;8.802;2022-09-12T06:53:45;15.00;99.90
20881;DHT22;10600;53.096;8.802;2022-09-12T06:54:46;15.00;99.90
20881;DHT22;10600;53.096;8.802;2022-09-12T06:55:54;15.10;99.90
20881;DHT22;10600;53.096;8.802;2022-09-12T06:56:55;15.10;99.90
20881;DHT22;10600;53.096;8.802;2022-09-12T06:57:55;15.20;99.90
20881;DHT22;10600;53.096;8.802;2022-09-12T06:58:57;15.30;99.90
20881;DHT22;10600;53.096;8.802;2022-09-12T06:59:58;15.30;99.90
20881;DHT22;10600;53.096;8.802;2022-09-12T07:01:14;15.30;99.90
20881;DHT22;10600;53.096;8.802;2022-09-12T07:02:15;15.40;99.90
20881;DHT22;10600;53.096;8.802;2022-09-12T07:03:16;15.50;99.90
20881;DHT22;10600;53.096;8.802;2022-09-12T07:04:17;15.50;99.90
20881;DHT22;10600;53.096;8.802;2022-09-12T07:05:18;15.60;99.90
20881;DHT22;10600;53.096;8.802;2022-09-12T07:06:20;15.60;99.90
20881;DHT22;10600;53.096;8.802;2022-09-12T07:07:21;15.70;99.90
20881;DHT22;10600;53.096;8.802;2022-09-12T07:08:22;15.70;99.90
20881;DHT22;10600;53.096;8.802;2022-09-12T07:09:23;15.80;99.90
20881;DHT22;10600;53.096;8.802;2022-09-12T07:10:24;15.80;99.90
20881;DHT22;10600;53.096;8.802;2022-09-12T07:11:27;15.90;99.90
20881;DHT22;10600;53.096;8.802;2022-09-12T07:12:28;15.90;99.90
20881;DHT22;10600;53.096;8.802;2022-09-12T07:13:29;16.00;99.90
20881;DHT22;10600;53.096;8.802;2022-09-12T07:14:30;16.00;99.90
20881;DHT22;10600;53.096;8.802;2022-09-12T07:15:30;16.10;99.90
20881;DHT22;10600;53.096;8.802;2022-09-12T07:16:31;16.10;99.90
20881;DHT22;10600;53.096;8.802;2022-09-12T07:17:32;16.20;99.90
20881;DHT22;10600;53.096;8.802;2022-09-12T07:18:33;16.20;99.90